Time;durP1;ratioP1;P1;durP2;ratioP2;P2;SDS_P1;SDS_P2;PMS_P1;PMS_P2;Temp;Humidity;BMP_temperature;BMP_pressure;BME280_temperature;BME280_humidity;BME280_pressure;Samples;Min_cycle;Max_cycle;Signal;HPM_P1;HPM_P2
2021/11/02 00:01:59;;;;;;;3.50;2.90;;;8.60;99.90;;;;;;4992263;28;20203;-69
2021/11/02 00:04:27;;;;;;;5.20;2.47;;;8.70;99.90;;;;;;4991653;28;20223;-71
2021/11/02 00:06:54;;;;;;;3.67;2.57;;;8.70;99.90;;;;;;4991740;28;20215;-69
2021/11/02 00:09:26;;;;;;;4.47;2.77;;;8.80;99.90;;;;;;4992130;28;20214;-70
2021/11/02 00:11:53;;;;;;;3.43;2.17;;;8.70;99.90;;;;;;4992252;28;20208;-70
2021/11/02 00:14:21;;;;;;;3.90;2.30;;;8.70;99.90;;;;;;4993245;28;20227;-69
2021/11/02 00:16:55;;;;;;;3.90;2.30;;;8.70;99.90;;;;;;4995883;28;20207;-69
2021/11/02 00:19:22;;;;;;;4.97;2.70;;;8.70;99.90;;;;;;4995601;28;20211;-70
2021/11/02 00:21:53;;;;;;;2.70;2.00;;;8.70;99.90;;;;;;4995653;28;20212;-70
2021/11/02 00:24:38;;;;;;;3.73;2.20;;;8.60;99.90;;;;;;4995602;28;20311;-70
2021/11/02 00:27:05;;;;;;;3.57;2.33;;;8.70;99.90;;;;;;4996097;28;20208;-70
2021/11/02 00:29:32;;;;;;;4.40;2.40;;;8.80;99.90;;;;;;4999578;28;20218;-70
2021/11/02 00:31:58;;;;;;;3.63;2.40;;;8.90;99.90;;;;;;4994932;28;20207;-70
2021/11/02 00:34:25;;;;;;;5.03;2.67;;;9.00;99.90;;;;;;4994734;28;20230;-69
2021/11/02 00:36:53;;;;;;;2.87;2.20;;;9.00;99.90;;;;;;4994816;28;20645;-70
2021/11/02 00:39:20;;;;;;;4.97;2.73;;;9.00;99.90;;;;;;4997567;28;20214;-71
2021/11/02 00:41:46;;;;;;;4.03;2.20;;;9.10;99.90;;;;;;4996080;28;20581;-70
2021/11/02 00:44:13;;;;;;;3.23;2.13;;;9.10;99.90;;;;;;4995525;28;20662;-70
2021/11/02 00:46:40;;;;;;;2.80;2.30;;;9.20;99.90;;;;;;4995229;28;20217;-71
2021/11/02 00:49:13;;;;;;;5.10;2.40;;;9.30;99.90;;;;;;4994640;28;20211;-70
2021/11/02 00:51:40;;;;;;;3.83;1.83;;;9.40;99.90;;;;;;4994620;28;20203;-70
2021/11/02 00:54:08;;;;;;;3.70;2.23;;;9.50;99.90;;;;;;4994426;28;20236;-70
2021/11/02 00:56:36;;;;;;;4.50;2.20;;;9.60;99.90;;;;;;4994638;28;20219;-70
2021/11/02 00:59:03;;;;;;;2.07;1.73;;;9.70;99.90;;;;;;4994552;28;20208;-71
2021/11/02 01:01:29;;;;;;;3.00;2.10;;;9.70;99.90;;;;;;4994280;28;20207;-70
2021/11/02 01:03:56;;;;;;;3.83;1.90;;;9.70;99.90;;;;;;4994082;28;20235;-69
2021/11/02 01:06:23;;;;;;;4.27;1.90;;;9.80;99.90;;;;;;4994248;28;20680;-71
2021/11/02 01:08:50;;;;;;;3.57;1.90;;;9.80;99.90;;;;;;4995622;28;20695;-70
2021/11/02 01:11:19;;;;;;;3.03;2.03;;;9.90;99.90;;;;;;4996426;28;20586;-71
2021/11/02 01:13:46;;;;;;;2.83;1.90;;;9.90;99.90;;;;;;4997625;28;20224;-70
2021/11/02 01:16:12;;;;;;;5.17;1.90;;;9.90;99.90;;;;;;5012720;28;20211;-72
2021/11/02 01:18:39;;;;;;;3.13;2.00;;;9.90;99.90;;;;;;4997839;28;20495;-69
2021/11/02 01:21:06;;;;;;;5.70;1.80;;;10.10;99.90;;;;;;4995104;28;20215;-70
2021/11/02 01:23:33;;;;;;;3.63;2.00;;;10.10;99.90;;;;;;4994205;28;20215;-70
2021/11/02 01:26:00;;;;;;;3.97;1.73;;;10.20;99.90;;;;;;4993716;28;20676;-70
2021/11/02 01:28:28;;;;;;;4.17;1.87;;;10.30;99.90;;;;;;4994107;28;20219;-71
2021/11/02 01:30:55;;;;;;;4.07;2.20;;;10.30;99.90;;;;;;4993872;28;20207;-70
2021/11/02 01:33:22;;;;;;;5.60;2.40;;;10.00;99.90;;;;;;4994081;28;20590;-70
2021/11/02 01:35:48;;;;;;;2.60;1.90;;;9.90;99.90;;;;;;4993981;28;20224;-70
2021/11/02 01:38:16;;;;;;;3.37;2.07;;;9.90;99.90;;;;;;4993914;28;20211;-70
2021/11/02 01:40:43;;;;;;;2.63;2.17;;;9.80;99.90;;;;;;4994019;28;20427;-70
2021/11/02 01:43:11;;;;;;;3.70;2.33;;;9.50;99.90;;;;;;4993866;28;20212;-69
2021/11/02 01:45:39;;;;;;;4.00;2.40;;;9.40;99.90;;;;;;4993983;28;20237;-70
2021/11/02 01:48:07;;;;;;;3.60;2.17;;;9.50;99.90;;;;;;4994600;28;20219;-71
2021/11/02 01:50:35;;;;;;;3.20;1.90;;;9.50;99.90;;;;;;4994916;28;20243;-71
2021/11/02 01:53:01;;;;;;;2.20;2.00;;;9.60;99.90;;;;;;4993957;28;20583;-72
2021/11/02 01:55:29;;;;;;;5.07;3.90;;;9.80;99.90;;;;;;4993683;28;20227;-71
2021/11/02 01:57:55;;;;;;;5.60;2.33;;;9.90;99.90;;;;;;4993609;28;20298;-73
2021/11/02 02:00:24;;;;;;;6.37;2.27;;;10.00;99.90;;;;;;4993861;28;20258;-71
2021/11/02 02:03:08;;;;;;;3.07;2.50;;;10.00;99.90;;;;;;4993504;28;20210;-71
2021/11/02 02:05:50;;;;;;;4.73;2.50;;;10.20;99.90;;;;;;4993206;28;20591;-71
2021/11/02 02:08:22;;;;;;;4.97;2.00;;;10.30;99.90;;;;;;4993624;28;20211;-70
2021/11/02 02:10:58;;;;;;;3.07;2.00;;;10.30;99.90;;;;;;4994454;28;20211;-70
2021/11/02 02:13:34;;;;;;;2.43;2.00;;;10.30;99.90;;;;;;4993164;28;20235;-70
2021/11/02 02:16:12;;;;;;;2.17;1.97;;;10.10;99.90;;;;;;4993392;28;20230;-70
2021/11/02 02:18:48;;;;;;;4.43;2.10;;;10.00;99.90;;;;;;4993379;28;20207;-70
2021/11/02 02:21:37;;;;;;;3.30;2.00;;;10.20;99.90;;;;;;4993838;28;20207;-71
2021/11/02 02:24:24;;;;;;;3.50;1.90;;;10.20;99.90;;;;;;4993273;28;20235;-71
2021/11/02 02:27:04;;;;;;;6.57;1.97;;;10.30;99.90;;;;;;4993322;28;20217;-71
2021/11/02 02:29:34;;;;;;;2.57;1.93;;;10.30;99.90;;;;;;4993292;28;20664;-71
2021/11/02 02:32:03;;;;;;;4.67;2.10;;;10.20;99.90;;;;;;4993190;28;20213;-72
2021/11/02 02:34:32;;;;;;;4.20;1.77;;;10.20;99.90;;;;;;4992882;28;20227;-71
2021/11/02 02:37:00;;;;;;;3.03;1.90;;;10.40;99.90;;;;;;4992539;28;20595;-71
2021/11/02 02:39:28;;;;;;;3.67;2.17;;;10.40;99.90;;;;;;4993369;28;20633;-71
2021/11/02 02:41:57;;;;;;;3.17;2.40;;;10.40;99.90;;;;;;4993932;28;20215;-71
2021/11/02 02:44:26;;;;;;;3.90;2.10;;;10.50;99.90;;;;;;4993227;28;20680;-71
2021/11/02 02:46:55;;;;;;;3.13;2.13;;;10.50;99.90;;;;;;4993175;28;20269;-71
2021/11/02 02:49:23;;;;;;;5.53;2.57;;;10.60;99.90;;;;;;4992835;28;20210;-72
2021/11/02 02:51:52;;;;;;;2.57;1.60;;;10.70;99.90;;;;;;4992742;28;20211;-72
2021/11/02 02:54:21;;;;;;;2.70;1.80;;;10.70;99.90;;;;;;4992983;28;20703;-71
2021/11/02 02:56:50;;;;;;;1.87;1.60;;;10.60;99.90;;;;;;4993465;28;20203;-71
2021/11/02 02:59:17;;;;;;;2.93;1.53;;;10.50;99.90;;;;;;4995251;28;20204;-72
2021/11/02 03:01:44;;;;;;;3.30;1.63;;;10.60;99.90;;;;;;4995404;28;20701;-70
2021/11/02 03:04:18;;;;;;;3.77;1.40;;;10.70;99.90;;;;;;4993394;28;20223;-71
2021/11/02 03:06:50;;;;;;;2.20;1.47;;;10.70;99.90;;;;;;4993566;28;20676;-71
2021/11/02 03:09:21;;;;;;;1.60;1.20;;;10.80;99.90;;;;;;4976830;28;20207;-71
2021/11/02 03:11:48;;;;;;;5.53;1.77;;;10.90;99.90;;;;;;4994009;28;20211;-71
2021/11/02 03:14:22;;;;;;;2.43;1.30;;;10.80;99.90;;;;;;4992734;28;20235;-74
2021/11/02 03:16:56;;;;;;;2.07;1.10;;;10.90;99.90;;;;;;4992921;28;20258;-72
2021/11/02 03:50:42;;;;;;;3.20;1.47;;;10.70;99.90;;;;;;5088898;28;20203;-69
2021/11/02 03:56:02;;;;;;;4.53;1.57;;;10.80;99.90;;;;;;5068717;28;20196;-70
2021/11/02 03:58:34;;;;;;;3.83;2.07;;;10.80;99.90;;;;;;5092305;22;20306;-64
2021/11/02 04:01:26;;;;;;;2.33;1.30;;;10.80;99.90;;;;;;5068024;28;20304;-64
2021/11/02 04:23:46;;;;;;;3.70;1.60;;;10.90;99.90;;;;;;5067711;28;20675;-63
2021/11/02 04:35:05;;;;;;;4.20;1.80;;;10.90;99.90;;;;;;5067177;28;20208;-63
2021/11/02 05:11:14;;;;;;;4.23;1.33;;;9.60;99.90;;;;;;5046151;28;20683;-63
2021/11/02 05:14:14;;;;;;;3.20;1.93;;;9.60;99.90;;;;;;5053076;28;20729;-63
2021/11/02 05:47:05;;;;;;;3.93;1.00;;;8.70;99.90;;;;;;5052710;28;20302;-63
2021/11/02 05:49:52;;;;;;;3.80;1.47;;;8.70;99.90;;;;;;5052775;28;20229;-64
2021/11/02 05:57:53;;;;;;;4.50;1.50;;;8.40;99.90;;;;;;4977748;28;20274;-64
2021/11/02 06:00:22;;;;;;;3.27;1.50;;;8.30;99.90;;;;;;5052883;28;20216;-64
2021/11/02 06:03:10;;;;;;;4.30;1.40;;;8.30;99.90;;;;;;5052543;28;20300;-64
2021/11/02 06:05:51;;;;;;;8.33;3.20;;;8.20;99.90;;;;;;5052517;28;20241;-64
2021/11/02 06:08:31;;;;;;;3.40;1.90;;;8.00;99.90;;;;;;5052815;28;20230;-64
2021/11/02 06:28:07;;;;;;;5.27;1.60;;;7.80;99.90;;;;;;4972500;28;20278;-60
2021/11/02 06:30:45;;;;;;;5.43;1.73;;;7.90;99.90;;;;;;4972901;28;20212;-61
2021/11/02 06:33:27;;;;;;;5.00;1.90;;;7.90;99.90;;;;;;5015289;28;20297;-61
2021/11/02 06:36:05;;;;;;;3.50;1.73;;;8.00;99.90;;;;;;5052861;28;20209;-61
2021/11/02 06:38:59;;;;;;;4.27;1.80;;;8.00;99.90;;;;;;5052244;28;20233;-63
2021/11/02 06:47:28;;;;;;;5.43;1.77;;;8.20;99.90;;;;;;5052767;28;20228;-62
2021/11/02 06:50:25;;;;;;;4.47;1.87;;;8.60;99.90;;;;;;5051792;28;20416;-60
2021/11/02 06:53:14;;;;;;;3.53;1.90;;;9.10;99.90;;;;;;5052021;28;20210;-60
2021/11/02 07:18:55;;;;;;;4.17;1.80;;;8.80;99.90;;;;;;5088391;28;20546;-65
2021/11/02 07:21:24;;;;;;;5.03;1.60;;;8.70;99.90;;;;;;5086021;28;20204;-59
2021/11/02 07:23:57;;;;;;;4.50;1.40;;;8.70;99.90;;;;;;5088718;28;20249;-60
2021/11/02 07:26:49;;;;;;;3.03;1.23;;;8.80;99.90;;;;;;5088682;28;20204;-60
2021/11/02 07:29:44;;;;;;;5.07;2.33;;;9.00;99.90;;;;;;5088071;28;20232;-59
2021/11/02 08:47:32;;;;;;;3.90;0.80;;;12.80;99.90;;;;;;5033893;28;20197;-58
2021/11/02 08:49:59;;;;;;;3.43;1.43;;;13.20;99.90;;;;;;5033245;28;20628;-58
2021/11/02 08:52:27;;;;;;;1.93;1.00;;;13.40;99.90;;;;;;5033252;28;20234;-57
2021/11/02 08:54:56;;;;;;;2.90;1.10;;;13.50;99.90;;;;;;5033307;28;20213;-58
2021/11/02 08:57:25;;;;;;;1.73;0.90;;;13.50;99.90;;;;;;5033061;28;20706;-57
2021/11/02 08:59:53;;;;;;;2.03;1.07;;;13.60;99.90;;;;;;5033265;28;20210;-58
2021/11/02 09:02:26;;;;;;;2.03;1.00;;;13.60;99.90;;;;;;5033272;28;20241;-58
2021/11/02 09:05:01;;;;;;;1.83;1.03;;;13.70;99.90;;;;;;5033306;28;20229;-57
2021/11/02 09:07:29;;;;;;;3.60;1.10;;;13.90;99.90;;;;;;5033658;28;20208;-58
2021/11/02 09:09:57;;;;;;;1.90;1.00;;;14.00;99.90;;;;;;5033190;28;20304;-58
2021/11/02 09:12:30;;;;;;;2.10;1.10;;;14.20;99.90;;;;;;5032935;28;20292;-59
2021/11/02 09:14:59;;;;;;;1.83;1.20;;;14.30;99.90;;;;;;5032987;28;20305;-59
2021/11/02 09:17:29;;;;;;;2.03;1.30;;;14.50;99.90;;;;;;5032718;28;20277;-58
2021/11/02 09:19:57;;;;;;;3.27;1.37;;;14.70;99.90;;;;;;5032913;28;20283;-58
2021/11/02 09:22:24;;;;;;;2.97;1.40;;;14.80;99.90;;;;;;5032861;28;20649;-59
2021/11/02 09:24:52;;;;;;;2.40;1.43;;;14.90;99.90;;;;;;5032622;28;20708;-58
2021/11/02 09:27:19;;;;;;;4.13;1.40;;;15.00;99.90;;;;;;5032689;28;20209;-58
2021/11/02 09:29:48;;;;;;;3.50;1.80;;;15.20;99.90;;;;;;5033060;28;20214;-60
2021/11/02 09:32:15;;;;;;;1.90;1.10;;;15.30;99.90;;;;;;5032372;28;20291;-58
2021/11/02 09:34:42;;;;;;;2.50;1.10;;;15.20;99.90;;;;;;5032980;28;20206;-58
2021/11/02 09:37:16;;;;;;;4.90;1.43;;;15.20;99.90;;;;;;5032511;28;20781;-58
2021/11/02 09:39:48;;;;;;;2.50;1.13;;;15.10;99.90;;;;;;5032181;28;20237;-60
2021/11/02 09:43:14;;;;;;;4.53;1.50;;;15.10;99.90;;;;;;5032097;28;20284;-58
2021/11/02 09:46:17;;;;;;;10.77;7.87;;;15.00;99.90;;;;;;5031735;28;20790;-59
2021/11/02 09:49:26;;;;;;;3.53;1.43;;;14.80;99.90;;;;;;5032269;28;20201;-59
2021/11/02 09:52:18;;;;;;;2.80;1.00;;;14.70;99.90;;;;;;5032282;28;20237;-58
2021/11/02 09:55:11;;;;;;;2.90;1.10;;;14.60;99.90;;;;;;5032104;28;20225;-58
2021/11/02 09:58:07;;;;;;;1.47;1.23;;;14.40;99.90;;;;;;5032610;28;20230;-58
2021/11/02 10:00:56;;;;;;;3.70;1.47;;;14.20;99.90;;;;;;5032161;28;20230;-61
2021/11/02 10:03:52;;;;;;;2.27;1.00;;;13.90;99.90;;;;;;5032109;28;20584;-58
2021/11/02 10:06:33;;;;;;;3.37;1.47;;;13.80;99.90;;;;;;5032113;28;20214;-59
2021/11/02 10:09:08;;;;;;;3.10;1.67;;;13.50;99.90;;;;;;5030420;28;20237;-58
2021/11/02 10:11:40;;;;;;;2.53;1.20;;;13.40;99.90;;;;;;5031823;28;20283;-58
2021/11/02 10:14:33;;;;;;;3.00;1.33;;;13.40;99.90;;;;;;5031645;28;20210;-59
2021/11/02 10:17:13;;;;;;;5.33;1.93;;;13.30;99.90;;;;;;5031593;28;20260;-60
2021/11/02 10:20:06;;;;;;;3.73;1.53;;;13.30;99.90;;;;;;5031315;28;20427;-59
2021/11/02 10:22:56;;;;;;;2.97;2.13;;;13.30;99.90;;;;;;5031475;28;20217;-59
2021/11/02 10:26:01;;;;;;;4.07;1.40;;;13.30;99.90;;;;;;5031689;28;20217;-59
2021/11/02 10:29:07;;;;;;;3.60;1.50;;;13.40;99.90;;;;;;5008599;28;20202;-59
2021/11/02 10:31:36;;;;;;;3.00;1.50;;;13.40;99.90;;;;;;5031471;28;20626;-59
2021/11/02 10:34:10;;;;;;;4.70;2.03;;;13.60;99.90;;;;;;5031401;28;20241;-59
2021/11/02 10:36:51;;;;;;;5.70;2.60;;;13.70;99.90;;;;;;5031558;28;20244;-60
2021/11/02 10:39:28;;;;;;;3.97;2.23;;;13.90;99.90;;;;;;5031696;28;20233;-60
2021/11/02 10:42:11;;;;;;;6.40;3.83;;;14.00;99.90;;;;;;5031878;28;20233;-60
2021/11/02 10:44:44;;;;;;;6.13;3.40;;;14.00;99.90;;;;;;5031377;28;20632;-61
2021/11/02 10:47:19;;;;;;;10.13;5.40;;;14.10;99.90;;;;;;5031290;28;20219;-59
2021/11/02 10:50:05;;;;;;;4.73;1.90;;;14.00;99.90;;;;;;5031239;28;20233;-59
2021/11/02 10:52:36;;;;;;;2.73;1.70;;;14.00;99.90;;;;;;5031271;28;20214;-59
2021/11/02 10:55:18;;;;;;;3.23;2.27;;;14.00;99.90;;;;;;5031239;28;20264;-59
2021/11/02 10:58:05;;;;;;;4.17;2.80;;;14.00;99.90;;;;;;5031249;28;20210;-59
2021/11/02 11:00:33;;;;;;;4.20;1.97;;;14.00;99.90;;;;;;5031181;28;20232;-59
2021/11/02 11:03:07;;;;;;;4.33;2.00;;;14.10;99.90;;;;;;5031233;28;20210;-60
2021/11/02 11:05:34;;;;;;;3.23;1.83;;;14.10;99.90;;;;;;5031081;28;20206;-59
2021/11/02 11:08:04;;;;;;;3.03;1.93;;;14.10;99.90;;;;;;5030906;28;20706;-59
2021/11/02 11:10:31;;;;;;;4.20;2.30;;;14.10;99.90;;;;;;5031191;28;20229;-59
2021/11/02 11:13:00;;;;;;;3.47;2.10;;;14.00;99.90;;;;;;5031077;28;20206;-59
2021/11/02 11:15:28;;;;;;;3.23;1.90;;;14.00;99.90;;;;;;5030989;28;20206;-59
2021/11/02 11:17:56;;;;;;;4.60;2.40;;;14.00;99.90;;;;;;5031010;28;20756;-60
2021/11/02 11:20:24;;;;;;;4.50;2.00;;;13.90;99.90;;;;;;5031387;28;20206;-60
2021/11/02 11:22:53;;;;;;;5.53;2.63;;;13.90;99.90;;;;;;5031110;28;20233;-60
2021/11/02 11:25:29;;;;;;;3.90;2.30;;;13.90;99.90;;;;;;5031078;28;20217;-59
2021/11/02 11:27:57;;;;;;;3.53;1.80;;;13.90;99.90;;;;;;5031012;28;20206;-60
2021/11/02 11:30:27;;;;;;;3.53;1.73;;;13.90;99.90;;;;;;5030909;28;20206;-59
2021/11/02 11:32:54;;;;;;;3.70;1.63;;;13.80;99.90;;;;;;5030951;28;20673;-59
2021/11/02 11:35:21;;;;;;;3.13;1.60;;;13.70;99.90;;;;;;5030984;28;20263;-60
2021/11/02 11:37:50;;;;;;;3.90;1.73;;;13.70;99.90;;;;;;5030990;28;20222;-59
2021/11/02 11:40:19;;;;;;;4.63;2.33;;;13.70;99.90;;;;;;5031084;28;20300;-60
2021/11/02 11:42:49;;;;;;;4.27;1.70;;;13.80;99.90;;;;;;5030937;28;20211;-60
2021/11/02 11:45:17;;;;;;;4.03;1.93;;;13.90;99.90;;;;;;5030614;28;20217;-59
2021/11/02 11:47:44;;;;;;;2.30;1.63;;;13.90;99.90;;;;;;5030558;28;20214;-60
2021/11/02 11:50:25;;;;;;;3.20;1.50;;;13.90;99.90;;;;;;5030708;28;20206;-60
2021/11/02 11:52:54;;;;;;;1.40;1.30;;;13.90;99.90;;;;;;5030540;28;20202;-60
2021/11/02 11:55:24;;;;;;;3.00;1.57;;;13.80;99.90;;;;;;5030779;28;20653;-60
2021/11/02 11:58:07;;;;;;;3.77;2.20;;;13.90;99.90;;;;;;5030490;28;20234;-60
2021/11/02 12:00:36;;;;;;;3.97;1.63;;;13.90;99.90;;;;;;5030877;28;20237;-60
2021/11/02 12:03:05;;;;;;;5.03;1.80;;;14.00;99.90;;;;;;5030743;28;20210;-60
2021/11/02 12:05:33;;;;;;;3.43;1.50;;;14.10;99.90;;;;;;5033867;28;20214;-60
2021/11/02 12:08:07;;;;;;;3.57;1.87;;;14.40;99.90;;;;;;5034234;28;20603;-59
2021/11/02 12:10:35;;;;;;;2.00;1.50;;;14.60;99.90;;;;;;5034057;28;20773;-60
2021/11/02 12:13:07;;;;;;;7.23;3.10;;;14.80;99.90;;;;;;5034490;28;20210;-59
2021/11/02 12:15:46;;;;;;;4.53;2.30;;;14.90;99.90;;;;;;5034046;28;20214;-59
2021/11/02 12:18:17;;;;;;;5.80;2.30;;;15.00;99.90;;;;;;5034159;28;20224;-59
2021/11/02 12:20:45;;;;;;;4.53;2.50;;;15.30;99.90;;;;;;5033902;28;20234;-59
2021/11/02 12:23:21;;;;;;;4.80;2.03;;;15.50;99.90;;;;;;5034161;28;20210;-59
2021/11/02 12:25:51;;;;;;;9.60;5.93;;;15.60;99.90;;;;;;5033815;28;20210;-60
2021/11/02 12:28:30;;;;;;;52.67;36.03;;;15.70;99.90;;;;;;5034331;28;20750;-59
2021/11/02 12:31:00;;;;;;;7.07;2.57;;;15.80;99.90;;;;;;5033803;28;20676;-59
2021/11/02 12:33:28;;;;;;;4.33;2.10;;;15.60;99.90;;;;;;5033940;28;20210;-59
2021/11/02 12:35:57;;;;;;;5.53;2.20;;;15.50;99.90;;;;;;5033892;28;20268;-59
2021/11/02 12:38:32;;;;;;;3.77;1.80;;;15.40;99.90;;;;;;5033831;28;20222;-59
2021/11/02 12:40:59;;;;;;;5.70;2.03;;;15.30;99.90;;;;;;5033682;28;20234;-59
2021/11/02 12:43:29;;;;;;;3.57;2.03;;;15.10;99.90;;;;;;5033652;28;20206;-58
2021/11/02 12:45:58;;;;;;;2.93;1.50;;;14.90;99.90;;;;;;5033688;28;20206;-58
2021/11/02 12:48:26;;;;;;;5.57;1.70;;;14.70;99.90;;;;;;5033570;28;20203;-58
2021/11/02 12:50:54;;;;;;;3.20;1.40;;;14.50;99.90;;;;;;5033502;28;20682;-58
2021/11/02 12:53:21;;;;;;;5.40;1.50;;;14.40;99.90;;;;;;5033362;28;20615;-59
2021/11/02 12:55:48;;;;;;;2.73;1.10;;;14.30;99.90;;;;;;5033459;28;20305;-59
2021/11/02 12:58:18;;;;;;;3.17;1.37;;;14.20;99.90;;;;;;5032818;28;20229;-59
2021/11/02 13:00:50;;;;;;;1.57;1.00;;;14.10;99.90;;;;;;5033527;28;20237;-59
2021/11/02 13:03:28;;;;;;;1.23;1.10;;;14.00;99.90;;;;;;5033493;28;20732;-59
2021/11/02 13:05:56;;;;;;;1.97;1.03;;;14.10;99.90;;;;;;5033279;28;20202;-59
2021/11/02 13:08:32;;;;;;;2.27;0.87;;;14.10;99.90;;;;;;5033342;28;20734;-59
2021/11/02 13:11:07;;;;;;;1.23;0.90;;;14.20;99.90;;;;;;5033014;28;20233;-58
2021/11/02 13:13:56;;;;;;;4.73;0.80;;;14.30;99.90;;;;;;5032839;28;20252;-58
2021/11/02 13:16:25;;;;;;;1.87;0.73;;;14.30;99.90;;;;;;5032789;28;20234;-57
2021/11/02 13:18:52;;;;;;;2.30;1.27;;;14.30;99.90;;;;;;5032618;28;20933;-59
2021/11/02 13:21:29;;;;;;;1.90;1.10;;;14.50;99.90;;;;;;5032648;28;20226;-59
2021/11/02 13:24:04;;;;;;;1.17;0.63;;;14.50;99.90;;;;;;5032708;28;20210;-58
2021/11/02 13:26:31;;;;;;;2.37;1.07;;;14.60;99.90;;;;;;5033009;28;20216;-58
2021/11/02 13:29:10;;;;;;;5.50;1.20;;;14.80;99.90;;;;;;5033041;28;20201;-59
2021/11/02 13:31:38;;;;;;;6.83;1.40;;;14.90;99.90;;;;;;5074703;22;20669;-59
2021/11/02 13:34:07;;;;;;;8.27;1.30;;;15.00;99.90;;;;;;5072219;28;20668;-59
2021/11/02 13:36:35;;;;;;;3.50;0.80;;;15.10;99.90;;;;;;5072278;28;20610;-60
2021/11/02 13:39:03;;;;;;;2.83;0.60;;;15.20;99.90;;;;;;5072443;28;20224;-59
2021/11/02 13:41:31;;;;;;;3.93;0.57;;;15.30;99.90;;;;;;5072272;28;20263;-59
2021/11/02 13:44:01;;;;;;;5.47;1.00;;;15.30;99.90;;;;;;5072125;28;20209;-59
2021/11/02 13:46:30;;;;;;;2.50;0.70;;;15.30;99.90;;;;;;5072183;28;20296;-59
2021/11/02 13:48:59;;;;;;;2.40;0.70;;;15.30;99.90;;;;;;5072040;28;20207;-59
2021/11/02 13:51:26;;;;;;;7.20;1.23;;;15.20;99.90;;;;;;5072297;28;20279;-59
2021/11/02 13:53:54;;;;;;;9.63;1.90;;;15.00;99.90;;;;;;5072207;28;20205;-59
2021/11/02 13:56:23;;;;;;;9.27;2.63;;;14.90;99.90;;;;;;5071902;28;20593;-59
2021/11/02 13:58:50;;;;;;;7.13;2.30;;;14.80;99.90;;;;;;5071699;28;20569;-59
2021/11/02 14:01:22;;;;;;;3.13;1.10;;;14.60;99.90;;;;;;5072027;28;20225;-59
2021/11/02 14:03:57;;;;;;;2.87;0.80;;;14.40;99.90;;;;;;5071821;28;20205;-59
2021/11/02 14:06:27;;;;;;;3.70;1.30;;;14.30;99.90;;;;;;5071616;28;20213;-60
2021/11/02 14:08:56;;;;;;;3.97;3.40;;;14.20;99.90;;;;;;5071874;28;20212;-59
2021/11/02 14:11:26;;;;;;;2.60;1.00;;;14.10;99.90;;;;;;5071702;28;20225;-59
2021/11/02 14:13:56;;;;;;;2.53;1.27;;;14.00;99.90;;;;;;5071796;28;20204;-59
2021/11/02 14:16:35;;;;;;;1.40;1.03;;;14.00;99.90;;;;;;5071995;28;20204;-59
2021/11/02 14:19:02;;;;;;;1.63;1.27;;;14.10;99.90;;;;;;5071646;28;20231;-60
2021/11/02 14:21:50;;;;;;;1.47;0.77;;;14.10;99.90;;;;;;5071560;28;20229;-60
2021/11/02 14:24:30;;;;;;;4.90;1.07;;;14.10;99.90;;;;;;5071406;28;20751;-59
2021/11/02 14:26:56;;;;;;;3.37;1.10;;;14.10;99.90;;;;;;5071047;28;20233;-59
2021/11/02 14:29:44;;;;;;;2.23;1.23;;;14.20;99.90;;;;;;5071720;28;20204;-60
2021/11/02 14:32:12;;;;;;;1.83;1.07;;;14.20;99.90;;;;;;5070920;28;20244;-60
2021/11/02 14:34:46;;;;;;;3.20;1.10;;;14.30;99.90;;;;;;5071080;28;20216;-60
2021/11/02 14:37:16;;;;;;;1.67;1.00;;;14.40;99.90;;;;;;5071120;28;20204;-59
2021/11/02 14:40:00;;;;;;;6.47;1.90;;;14.50;99.90;;;;;;5070840;28;20311;-59
2021/11/02 14:42:46;;;;;;;1.50;0.90;;;14.50;99.90;;;;;;5070647;28;20235;-59
2021/11/02 14:45:15;;;;;;;1.13;0.97;;;14.40;99.90;;;;;;5070967;28;20204;-59
2021/11/02 14:47:42;;;;;;;3.63;1.00;;;14.40;99.90;;;;;;5071051;28;20554;-60
2021/11/02 14:50:30;;;;;;;1.57;0.90;;;14.30;99.90;;;;;;5070820;28;20203;-59
2021/11/02 14:53:17;;;;;;;0.60;0.60;;;14.10;99.90;;;;;;5059631;28;20292;-59
2021/11/02 14:55:56;;;;;;;0.93;0.60;;;13.90;99.90;;;;;;5070591;28;20209;-59
2021/11/02 14:58:48;;;;;;;5.93;3.23;;;13.80;99.90;;;;;;5070601;28;20252;-58
2021/11/02 15:01:18;;;;;;;1.17;1.00;;;13.70;99.90;;;;;;5070681;28;20232;-59
2021/11/02 15:03:51;;;;;;;2.00;1.00;;;13.50;99.90;;;;;;5070889;28;20657;-59
2021/11/02 15:06:19;;;;;;;1.57;0.90;;;13.40;99.90;;;;;;5071053;28;20618;-59
2021/11/02 15:08:48;;;;;;;1.43;1.10;;;13.30;99.90;;;;;;5070693;28;20251;-59
2021/11/02 15:11:18;;;;;;;1.87;1.20;;;13.30;99.90;;;;;;5070686;28;20228;-59
2021/11/02 15:13:50;;;;;;;2.70;0.80;;;13.20;99.90;;;;;;5070277;28;20205;-59
2021/11/02 15:16:17;;;;;;;1.00;0.67;;;13.20;99.90;;;;;;5070741;28;20262;-59
2021/11/02 15:18:46;;;;;;;1.00;0.60;;;13.20;99.90;;;;;;5070583;28;20558;-59
2021/11/02 15:21:17;;;;;;;0.47;0.47;;;13.30;99.90;;;;;;5070676;28;20752;-59
2021/11/02 15:23:50;;;;;;;3.43;0.63;;;13.20;99.90;;;;;;5070778;28;20220;-58
2021/11/02 15:26:17;;;;;;;0.40;0.40;;;13.30;99.90;;;;;;5070687;28;20296;-59
2021/11/02 15:28:46;;;;;;;1.10;0.80;;;13.20;99.90;;;;;;5070954;28;20209;-59
2021/11/02 15:31:14;;;;;;;2.73;0.80;;;13.10;99.90;;;;;;5070433;28;20242;-59
2021/11/02 15:33:42;;;;;;;10.97;7.60;;;12.90;99.90;;;;;;5070585;28;20474;-59
2021/11/02 15:36:14;;;;;;;1.37;0.90;;;12.70;99.90;;;;;;5070697;28;20266;-59
2021/11/02 15:38:41;;;;;;;1.40;1.23;;;12.60;99.90;;;;;;5071067;28;20209;-58
2021/11/02 15:41:21;;;;;;;1.33;1.23;;;12.40;99.90;;;;;;5074596;28;20231;-59
2021/11/02 15:43:56;;;;;;;1.70;1.50;;;12.20;99.90;;;;;;5074470;28;20664;-60
2021/11/02 15:46:39;;;;;;;1.30;1.20;;;12.10;99.90;;;;;;5074371;28;20215;-59
2021/11/02 15:49:08;;;;;;;4.87;1.30;;;12.20;99.90;;;;;;5070459;28;20201;-60
2021/11/02 15:51:37;;;;;;;1.90;1.40;;;12.00;99.90;;;;;;5074448;28;20232;-60
2021/11/02 15:54:12;;;;;;;1.53;1.00;;;11.90;99.90;;;;;;5073962;28;20209;-60
2021/11/02 15:56:41;;;;;;;1.53;0.90;;;11.70;99.90;;;;;;5074080;28;20266;-61
2021/11/02 15:59:10;;;;;;;2.70;1.30;;;11.60;99.90;;;;;;5073759;28;20232;-60
2021/11/02 16:01:39;;;;;;;1.93;1.30;;;11.60;99.90;;;;;;5073791;28;20229;-60
2021/11/02 16:04:14;;;;;;;2.13;1.10;;;11.50;99.90;;;;;;5073993;28;20209;-60
2021/11/02 16:07:04;;;;;;;1.13;0.90;;;11.40;99.90;;;;;;5073793;28;20638;-59
2021/11/02 16:09:58;;;;;;;2.80;1.70;;;11.20;99.90;;;;;;5073556;28;20207;-60
2021/11/02 16:12:30;;;;;;;0.60;0.50;;;11.10;99.90;;;;;;5026372;28;20228;-60
2021/11/02 16:15:09;;;;;;;2.67;1.20;;;11.10;99.90;;;;;;5073796;28;20695;-60
2021/11/02 16:17:40;;;;;;;1.10;0.70;;;11.10;99.90;;;;;;5073458;28;20561;-58
2021/11/02 16:20:08;;;;;;;1.33;0.57;;;11.10;99.90;;;;;;5073628;28;20225;-60
2021/11/02 16:22:49;;;;;;;1.27;1.17;;;11.20;99.90;;;;;;5073442;28;20224;-59
2021/11/02 16:25:16;;;;;;;0.63;0.43;;;11.30;99.90;;;;;;5073595;28;20274;-59
2021/11/02 16:27:53;;;;;;;1.80;0.40;;;11.30;99.90;;;;;;5072958;28;20220;-59
2021/11/02 16:30:23;;;;;;;2.13;1.80;;;11.30;99.90;;;;;;5073304;28;20204;-62
2021/11/02 16:32:52;;;;;;;1.23;0.73;;;11.30;99.90;;;;;;5072946;28;20232;-60
2021/11/02 16:35:37;;;;;;;2.00;1.10;;;11.30;99.90;;;;;;5073236;28;20208;-61
2021/11/02 16:38:27;;;;;;;0.80;0.63;;;11.40;99.90;;;;;;5073246;28;20205;-61
2021/11/02 16:40:57;;;;;;;0.90;0.60;;;11.50;99.90;;;;;;5073163;28;20229;-61
2021/11/02 16:43:29;;;;;;;1.23;0.77;;;11.40;99.90;;;;;;5073080;28;20208;-61
2021/11/02 16:45:56;;;;;;;0.50;0.50;;;11.30;99.90;;;;;;5073409;28;20215;-61
2021/11/02 16:48:35;;;;;;;2.53;0.87;;;11.20;99.90;;;;;;5073105;28;20213;-60
2021/11/02 16:51:02;;;;;;;4.37;1.40;;;11.20;99.90;;;;;;5072841;28;20221;-61
2021/11/02 16:53:29;;;;;;;2.40;1.87;;;11.10;99.90;;;;;;5072794;28;20729;-60
2021/11/02 16:56:01;;;;;;;1.10;0.80;;;11.10;99.90;;;;;;5072741;28;20653;-61
2021/11/02 16:58:33;;;;;;;0.83;0.60;;;11.10;99.90;;;;;;5073084;28;20299;-61
2021/11/02 17:01:30;;;;;;;2.90;0.80;;;11.10;99.90;;;;;;5072962;28;20233;-60
2021/11/02 17:04:08;;;;;;;1.17;0.73;;;11.00;99.90;;;;;;5073103;28;20209;-61
2021/11/02 17:06:35;;;;;;;2.57;1.20;;;10.90;99.90;;;;;;5073353;28;20294;-60
2021/11/02 17:09:14;;;;;;;3.33;0.70;;;10.90;99.90;;;;;;5072936;28;20344;-61
2021/11/02 17:11:51;;;;;;;1.80;0.60;;;10.80;99.90;;;;;;5073016;28;20225;-61
2021/11/02 17:14:19;;;;;;;1.73;0.73;;;10.80;99.90;;;;;;5072610;28;20765;-60
2021/11/02 17:16:51;;;;;;;2.73;0.90;;;10.60;99.90;;;;;;5072760;28;20208;-61
2021/11/02 17:19:20;;;;;;;1.93;1.03;;;10.50;99.90;;;;;;5072798;28;20580;-60
2021/11/02 17:21:50;;;;;;;1.40;1.00;;;10.40;99.90;;;;;;5072581;28;20225;-61
2021/11/02 17:24:17;;;;;;;1.43;1.03;;;10.30;99.90;;;;;;5072710;28;20292;-61
2021/11/02 17:26:44;;;;;;;1.53;0.90;;;10.20;99.90;;;;;;5072506;28;20212;-61
2021/11/02 17:29:11;;;;;;;1.67;1.10;;;10.10;99.90;;;;;;5072190;28;20201;-60
2021/11/02 17:31:41;;;;;;;3.60;0.90;;;10.10;99.90;;;;;;5071949;28;20228;-61
2021/11/02 17:34:09;;;;;;;1.27;0.70;;;10.10;99.90;;;;;;5072520;28;20205;-60